Time;durP1;ratioP1;P1;durP2;ratioP2;P2;SDS_P1;SDS_P2;PMS_P1;PMS_P2;Temp;Humidity;BMP_temperature;BMP_pressure;BME280_temperature;BME280_humidity;BME280_pressure;Samples;Min_cycle;Max_cycle;Signal;HPM_P1;HPM_P2
2022/03/05 00:03:37;;;;;;;3.25;2.08;;;17.90;25.00;20.30;93769.00;;;;10354270;28;45361;-62
2022/03/05 00:08:38;;;;;;;3.05;2.10;;;17.90;25.10;20.30;93779.00;;;;10358016;28;45169;-61
2022/03/05 00:13:38;;;;;;;3.63;2.28;;;17.80;25.00;20.30;93775.00;;;;10372493;28;47243;-59
2022/03/05 00:18:39;;;;;;;3.47;2.40;;;17.80;25.00;20.30;93768.00;;;;10353977;28;46233;-60
2022/03/05 00:23:39;;;;;;;2.80;1.90;;;17.80;25.00;20.30;93774.00;;;;10357327;28;45591;-60
2022/03/05 00:28:40;;;;;;;3.28;2.20;;;17.80;25.00;20.30;93774.00;;;;10358960;28;45336;-61
2022/03/05 00:33:41;;;;;;;3.08;2.05;;;17.80;25.00;20.30;93772.00;;;;10358165;28;45303;-60
2022/03/05 00:38:41;;;;;;;2.70;2.00;;;17.80;25.10;20.30;93773.00;;;;10357271;28;45251;-61
2022/03/05 00:43:42;;;;;;;3.17;2.10;;;17.80;25.00;20.30;93783.00;;;;10356403;28;45199;-60
2022/03/05 00:48:43;;;;;;;2.47;1.90;;;17.80;25.00;20.30;93778.00;;;;10356740;28;45632;-61
2022/03/05 00:53:43;;;;;;;2.90;1.80;;;17.80;24.90;20.30;93769.00;;;;10356640;28;45183;-61
2022/03/05 00:58:44;;;;;;;2.95;1.73;;;17.80;25.00;20.30;93778.00;;;;10357912;28;45175;-61
2022/03/05 01:03:45;;;;;;;2.88;2.05;;;17.80;25.00;20.30;93768.00;;;;10356330;28;45212;-59
2022/03/05 01:08:45;;;;;;;2.67;2.03;;;17.80;24.90;20.30;93775.00;;;;10372757;28;48440;-61
2022/03/05 01:13:46;;;;;;;3.25;2.05;;;17.80;24.90;20.30;93759.00;;;;10356088;28;45420;-60
2022/03/05 01:18:47;;;;;;;2.95;1.80;;;17.80;25.00;20.30;93757.00;;;;10356012;28;46456;-60
2022/03/05 01:23:48;;;;;;;3.22;1.70;;;17.80;24.90;20.30;93757.00;;;;10357121;28;45418;-60
2022/03/05 01:28:48;;;;;;;3.45;2.00;;;17.80;24.90;20.30;93760.00;;;;10355889;28;45185;-61
2022/03/05 01:33:49;;;;;;;2.90;1.73;;;17.80;24.90;20.30;93747.00;;;;10355950;28;46322;-61
2022/03/05 01:38:49;;;;;;;3.35;1.92;;;17.80;25.00;20.30;93731.00;;;;10355323;28;45472;-61
2022/03/05 01:43:52;;;;;;;2.85;1.90;;;17.80;25.00;20.30;93747.00;;;;10356381;28;45134;-60
2022/03/05 01:48:52;;;;;;;3.15;1.90;;;17.80;25.00;20.30;93742.00;;;;10355090;28;45261;-62
2022/03/05 01:53:53;;;;;;;3.15;2.00;;;17.80;25.00;20.30;93726.00;;;;10356939;28;45608;-61
2022/03/05 01:58:55;;;;;;;2.70;1.73;;;17.80;25.10;20.30;93748.00;;;;10353525;28;46411;-59
2022/03/05 02:03:56;;;;;;;3.20;1.80;;;17.80;25.00;20.30;93721.00;;;;10366623;28;47546;-60
2022/03/05 02:08:58;;;;;;;2.75;1.75;;;17.80;25.10;20.30;93725.00;;;;10353898;28;45331;-60
2022/03/05 02:13:58;;;;;;;2.45;1.50;;;17.80;25.00;20.30;93739.00;;;;10354953;28;45739;-62
2022/03/05 02:18:59;;;;;;;5.05;1.60;;;17.80;25.00;20.30;93745.00;;;;10353962;28;45426;-62
2022/03/05 02:24:00;;;;;;;2.80;1.70;;;17.80;25.00;20.30;93727.00;;;;10369993;28;46173;-62
2022/03/05 02:29:00;;;;;;;2.50;1.58;;;17.80;25.00;20.30;93733.00;;;;10354860;28;45173;-61
2022/03/05 02:34:01;;;;;;;2.25;1.50;;;17.80;25.00;20.20;93726.00;;;;10353505;28;45620;-61
2022/03/05 02:39:02;;;;;;;2.75;1.63;;;17.80;25.10;20.30;93726.00;;;;10353420;28;45341;-60
2022/03/05 02:44:03;;;;;;;2.80;1.70;;;17.80;25.00;20.30;93723.00;;;;10353492;28;45296;-60
2022/03/05 02:49:04;;;;;;;2.15;1.60;;;17.80;25.00;20.30;93712.00;;;;10353075;28;45172;-61
2022/03/05 02:54:05;;;;;;;2.78;1.40;;;17.80;25.00;20.30;93722.00;;;;10354453;28;45260;-61
2022/03/05 02:59:05;;;;;;;2.47;1.60;;;17.80;25.00;20.30;93714.00;;;;10335917;28;47279;-61
2022/03/05 03:04:06;;;;;;;2.42;1.45;;;17.80;25.00;20.20;93711.00;;;;10352479;28;47362;-60
2022/03/05 03:09:07;;;;;;;1.63;1.30;;;17.80;25.00;20.20;93706.00;;;;10353254;28;45205;-60
2022/03/05 03:14:07;;;;;;;2.28;1.20;;;17.80;25.40;20.20;93708.00;;;;10352358;28;46294;-60
2022/03/05 03:19:08;;;;;;;2.35;1.33;;;17.80;25.00;20.20;93711.00;;;;10352155;28;45642;-61
2022/03/05 03:24:09;;;;;;;2.35;1.42;;;17.80;25.00;20.20;93699.00;;;;10335613;28;48015;-60
2022/03/05 03:29:09;;;;;;;2.33;1.42;;;17.80;25.00;20.20;93714.00;;;;10353482;28;45128;-60
2022/03/05 03:34:10;;;;;;;2.13;1.40;;;17.80;24.80;20.20;93714.00;;;;10335057;28;47794;-61
2022/03/05 03:39:11;;;;;;;1.23;1.10;;;17.80;24.90;20.20;93705.00;;;;10351025;28;45255;-61
2022/03/05 03:44:11;;;;;;;2.40;1.67;;;17.80;25.00;20.20;93701.00;;;;10352838;28;45289;-60
2022/03/05 03:49:12;;;;;;;2.13;1.38;;;17.70;24.80;20.20;93711.00;;;;10352968;28;46263;-62
2022/03/05 03:54:13;;;;;;;2.05;1.30;;;17.80;24.80;20.20;93709.00;;;;10352805;28;45434;-61
2022/03/05 03:59:14;;;;;;;2.55;1.30;;;17.70;24.80;20.20;93714.00;;;;10351413;28;45244;-61
2022/03/05 04:04:14;;;;;;;2.28;1.42;;;17.70;24.90;20.20;93713.00;;;;10351237;28;45277;-59
2022/03/05 04:09:15;;;;;;;2.38;1.33;;;17.70;24.80;20.20;93695.00;;;;10350603;28;48117;-61
2022/03/05 04:14:17;;;;;;;1.88;1.10;;;17.70;24.90;20.20;93714.00;;;;10352014;28;45170;-61
2022/03/05 04:19:18;;;;;;;1.90;1.20;;;17.70;24.90;20.20;93718.00;;;;10352139;28;45162;-62
2022/03/05 04:24:19;;;;;;;1.20;1.10;;;17.70;24.90;20.20;93712.00;;;;10351738;28;45198;-61
2022/03/05 04:29:19;;;;;;;1.60;1.20;;;17.70;24.90;20.20;93717.00;;;;10351604;28;46674;-62
2022/03/05 04:34:20;;;;;;;1.65;1.10;;;17.70;24.90;20.20;93715.00;;;;10350304;28;45294;-62
2022/03/05 04:39:21;;;;;;;1.77;1.10;;;17.70;24.90;20.20;93716.00;;;;10366337;28;47881;-61
2022/03/05 04:44:21;;;;;;;1.85;1.23;;;17.80;24.80;20.20;93716.00;;;;10350399;28;45124;-62
2022/03/05 04:49:23;;;;;;;1.88;1.23;;;17.70;24.90;20.20;93716.00;;;;10349812;28;45153;-61
2022/03/05 04:54:25;;;;;;;1.40;0.82;;;17.70;24.80;20.20;93708.00;;;;10372845;28;48355;-60
2022/03/05 04:59:26;;;;;;;1.45;1.05;;;17.70;24.80;20.20;93720.00;;;;10356648;28;46145;-62
2022/03/05 05:04:27;;;;;;;1.10;0.85;;;17.70;24.70;20.20;93712.00;;;;10340053;28;47109;-60
2022/03/05 05:09:28;;;;;;;1.88;1.30;;;17.70;24.70;20.20;93717.00;;;;10357794;28;46157;-61
2022/03/05 05:14:28;;;;;;;1.60;1.00;;;17.70;24.80;20.20;93724.00;;;;10339791;28;47015;-61
2022/03/05 05:19:29;;;;;;;1.45;0.90;;;17.70;24.90;20.30;93730.00;;;;10357194;28;45176;-60
2022/03/05 05:24:32;;;;;;;1.83;1.00;;;17.80;24.90;20.30;93729.00;;;;10355821;28;45629;-62
2022/03/05 05:29:33;;;;;;;2.00;1.08;;;17.80;24.90;20.30;93721.00;;;;10339067;28;47161;-62
2022/03/05 05:34:34;;;;;;;1.20;0.80;;;17.80;24.90;20.30;93730.00;;;;10355363;28;45374;-61
2022/03/05 05:39:35;;;;;;;0.90;0.73;;;17.80;24.90;20.30;93740.00;;;;10356572;28;45278;-61
2022/03/05 05:44:36;;;;;;;1.25;1.02;;;17.90;24.90;20.30;93731.00;;;;10355292;28;46429;-61
2022/03/05 05:49:37;;;;;;;1.10;0.90;;;17.90;24.80;20.30;93733.00;;;;10355789;28;45186;-61
2022/03/05 05:54:37;;;;;;;1.27;0.80;;;17.90;24.70;20.30;93734.00;;;;10355197;28;46624;-61
2022/03/05 05:59:38;;;;;;;1.38;0.90;;;17.90;24.60;20.30;93737.00;;;;10356090;28;45863;-60
2022/03/05 06:04:39;;;;;;;1.00;0.82;;;17.90;24.60;20.30;93747.00;;;;10354343;28;46203;-60
2022/03/05 06:09:39;;;;;;;1.33;1.00;;;17.90;24.40;20.30;93739.00;;;;10355841;28;45487;-61
2022/03/05 06:14:40;;;;;;;1.65;0.90;;;17.90;24.30;20.30;93752.00;;;;10355786;28;45604;-60
2022/03/05 06:19:42;;;;;;;1.10;0.80;;;17.80;24.20;20.30;93738.00;;;;10355395;28;46031;-60
2022/03/05 06:24:43;;;;;;;1.08;0.80;;;17.80;24.20;20.30;93751.00;;;;10355307;28;45335;-61
2022/03/05 06:29:44;;;;;;;1.58;0.90;;;17.80;24.30;20.30;93755.00;;;;10355082;28;45158;-61
2022/03/05 06:34:44;;;;;;;1.30;0.82;;;17.80;24.40;20.30;93758.00;;;;10354548;28;46122;-61
2022/03/05 06:39:45;;;;;;;1.40;1.00;;;17.80;24.30;20.30;93767.00;;;;10354561;28;46143;-60
2022/03/05 06:44:46;;;;;;;1.15;0.90;;;17.80;24.40;20.30;93761.00;;;;10353500;28;45392;-61
2022/03/05 06:49:46;;;;;;;1.08;0.90;;;17.90;24.30;20.30;93770.00;;;;10354623;28;45170;-61
2022/03/05 06:54:47;;;;;;;1.30;0.88;;;17.90;24.40;20.30;93767.00;;;;10369181;28;47311;-60
2022/03/05 06:59:47;;;;;;;1.45;1.00;;;17.90;24.30;20.30;93774.00;;;;10352966;28;45399;-61
2022/03/05 07:04:49;;;;;;;1.33;1.00;;;17.90;24.30;20.30;93783.00;;;;10354087;28;46455;-60
2022/03/05 07:09:51;;;;;;;1.52;0.90;;;17.90;24.20;20.30;93777.00;;;;10353957;28;45459;-60
2022/03/05 07:14:51;;;;;;;1.30;0.75;;;17.90;24.10;20.30;93785.00;;;;10352783;28;45115;-62
2022/03/05 07:19:54;;;;;;;1.38;1.00;;;17.90;24.00;20.30;93784.00;;;;10353539;28;45621;-60
2022/03/05 07:24:55;;;;;;;0.90;0.80;;;17.90;24.00;20.30;93796.00;;;;10336040;28;48063;-60
2022/03/05 07:29:55;;;;;;;1.65;0.88;;;17.90;24.00;20.30;93791.00;;;;10352154;28;45779;-60
2022/03/05 07:34:56;;;;;;;1.35;1.00;;;17.90;24.00;20.30;93796.00;;;;10339718;22;47959;-62
2022/03/05 07:39:57;;;;;;;1.58;1.00;;;17.90;24.00;20.30;93790.00;;;;10313379;28;45468;-63
2022/03/05 07:44:57;;;;;;;1.63;1.00;;;17.80;24.00;20.30;93798.00;;;;10293372;28;45209;-62
2022/03/05 07:49:58;;;;;;;1.27;0.95;;;17.90;24.10;20.30;93809.00;;;;10271843;28;45522;-62
2022/03/05 07:54:59;;;;;;;0.95;0.75;;;17.90;24.20;20.30;93807.00;;;;10254629;28;47289;-62
2022/03/05 08:00:00;;;;;;;1.98;0.77;;;17.90;24.20;20.30;93803.00;;;;10270840;28;45214;-68
2022/03/05 08:05:00;;;;;;;3.97;1.00;;;17.90;24.10;20.30;93811.00;;;;10271322;28;45355;-64
2022/03/05 08:10:01;;;;;;;1.77;0.75;;;17.90;23.80;20.20;93809.00;;;;10270858;28;45312;-64
2022/03/05 08:15:04;;;;;;;1.20;0.93;;;17.80;23.80;20.20;93811.00;;;;10270416;28;45613;-64
2022/03/05 08:20:06;;;;;;;1.75;0.80;;;17.80;23.70;20.20;93812.00;;;;10270045;28;45185;-64
2022/03/05 08:25:07;;;;;;;1.50;0.90;;;17.80;23.80;20.30;93823.00;;;;10274205;28;45222;-63
2022/03/05 08:30:09;;;;;;;1.95;1.00;;;17.80;23.90;20.30;93829.00;;;;10277926;28;45620;-63
2022/03/05 08:35:12;;;;;;;2.00;0.88;;;17.90;23.90;20.30;93818.00;;;;10260320;28;46878;-63
2022/03/05 08:40:14;;;;;;;1.52;1.00;;;17.90;23.90;20.30;93810.00;;;;10260666;28;46704;-64
2022/03/05 08:45:15;;;;;;;1.48;1.08;;;17.90;23.80;20.20;93816.00;;;;10276935;28;45311;-64
2022/03/05 08:50:16;;;;;;;1.20;0.90;;;17.80;22.80;20.30;93814.00;;;;10256997;28;46892;-63
2022/03/05 08:55:17;;;;;;;1.83;1.30;;;17.80;22.90;20.30;93812.00;;;;10273714;28;46090;-64
2022/03/05 09:00:18;;;;;;;1.80;0.82;;;17.90;22.80;20.30;93812.00;;;;10276545;28;45181;-64
2022/03/05 09:05:19;;;;;;;1.10;0.90;;;17.80;22.60;20.20;93808.00;;;;10291745;28;47239;-65
2022/03/05 09:10:20;;;;;;;2.10;1.10;;;17.80;22.30;20.20;93803.00;;;;10291822;28;47495;-64
2022/03/05 09:15:20;;;;;;;1.55;0.98;;;17.80;22.30;20.20;93795.00;;;;10275913;28;46695;-64
2022/03/05 09:20:21;;;;;;;1.23;1.00;;;17.80;22.00;20.20;93797.00;;;;10273061;28;47386;-64
2022/03/05 09:25:22;;;;;;;2.20;1.17;;;17.80;22.00;20.20;93792.00;;;;10271074;28;45412;-63
2022/03/05 09:30:23;;;;;;;1.45;0.98;;;17.80;22.00;20.20;93788.00;;;;10276481;28;46054;-63
2022/03/05 09:35:23;;;;;;;3.15;1.15;;;17.80;22.10;20.20;93781.00;;;;10257506;28;47463;-64
2022/03/05 09:40:25;;;;;;;1.58;1.10;;;17.80;22.20;20.20;93789.00;;;;10275168;28;46762;-63
2022/03/05 09:45:25;;;;;;;2.13;1.25;;;17.80;22.30;20.20;93790.00;;;;10258733;28;48249;-63
2022/03/05 09:50:28;;;;;;;2.92;1.30;;;17.80;22.30;20.20;93792.00;;;;10276229;28;45279;-64
2022/03/05 09:55:30;;;;;;;2.42;1.33;;;17.80;22.30;20.20;93793.00;;;;10275611;28;46218;-63
2022/03/05 10:00:30;;;;;;;2.67;1.40;;;17.80;22.60;20.20;93797.00;;;;10274069;28;47536;-63
2022/03/05 10:05:31;;;;;;;3.67;1.40;;;17.80;22.50;20.20;93792.00;;;;10257891;28;46950;-63
2022/03/05 10:10:46;;;;;;;2.17;1.40;;;17.80;22.60;20.30;93791.00;;;;10274094;28;48037;-63
2022/03/05 10:15:48;;;;;;;2.15;1.30;;;17.80;22.60;20.20;93772.00;;;;10289400;28;47688;-63
2022/03/05 10:20:50;;;;;;;2.25;1.60;;;17.80;22.50;20.30;93786.00;;;;10273129;28;45349;-63
2022/03/05 10:25:54;;;;;;;3.15;1.60;;;17.80;22.60;20.30;93787.00;;;;10272941;28;47158;-63
2022/03/05 10:31:02;;;;;;;3.58;1.48;;;17.90;22.70;20.30;93781.00;;;;10273766;28;46567;-63
2022/03/05 10:36:18;;;;;;;2.63;1.65;;;17.80;22.60;20.30;93781.00;;;;10256230;28;46988;-64
2022/03/05 10:41:40;;;;;;;2.53;1.50;;;17.90;22.30;20.30;93777.00;;;;10273338;28;46640;-63
2022/03/05 10:46:56;;;;;;;2.13;1.50;;;17.90;22.50;20.30;93767.00;;;;10272853;28;45470;-64
2022/03/05 10:51:59;;;;;;;2.42;1.40;;;17.90;22.50;20.30;93784.00;;;;10256745;28;47177;-63
2022/03/05 10:57:19;;;;;;;3.72;1.60;;;17.90;22.70;20.30;93788.00;;;;10288490;28;46996;-64
2022/03/05 11:02:22;;;;;;;2.40;1.45;;;17.90;22.90;20.30;93786.00;;;;10256071;28;47117;-63
2022/03/05 11:07:23;;;;;;;2.38;1.38;;;17.90;23.20;20.30;93763.00;;;;10270723;28;48187;-63
2022/03/05 11:12:24;;;;;;;2.70;1.50;;;17.90;23.40;20.40;93785.00;;;;10272522;28;45269;-64
2022/03/05 11:17:25;;;;;;;3.08;1.40;;;17.90;23.70;20.40;93769.00;;;;10271793;28;46150;-64
2022/03/05 11:22:28;;;;;;;2.28;1.50;;;18.00;23.90;20.40;93781.00;;;;10272184;28;46336;-64
2022/03/05 11:27:30;;;;;;;3.15;1.60;;;18.00;23.90;20.40;93770.00;;;;10271739;28;45190;-64
2022/03/05 11:32:35;;;;;;;2.60;1.50;;;18.00;24.00;20.40;93766.00;;;;10283353;28;45464;-64
2022/03/05 11:37:36;;;;;;;2.85;1.90;;;18.00;24.10;20.40;93768.00;;;;10294124;28;47115;-64
2022/03/05 11:42:38;;;;;;;3.10;1.52;;;18.00;24.10;20.40;93757.00;;;;10311931;28;48046;-66
2022/03/05 11:47:39;;;;;;;3.13;1.83;;;18.00;24.00;20.40;93766.00;;;;10311386;28;45345;-64
2022/03/05 11:52:40;;;;;;;3.33;1.48;;;18.00;24.10;20.40;93749.00;;;;10311496;28;45297;-64
2022/03/05 11:57:51;;;;;;;2.90;1.70;;;18.00;24.10;20.50;93754.00;;;;10312433;28;45256;-64
2022/03/05 12:02:56;;;;;;;2.85;1.85;;;18.00;24.20;20.50;93736.00;;;;10319454;28;45259;-63
2022/03/05 12:07:56;;;;;;;3.63;2.00;;;18.00;24.30;20.50;93744.00;;;;10317776;28;46411;-63
2022/03/05 12:12:59;;;;;;;3.97;1.95;;;18.00;24.30;20.50;93742.00;;;;10319538;28;45616;-63
2022/03/05 12:18:01;;;;;;;3.72;1.77;;;18.10;24.30;20.50;93726.00;;;;10334341;28;47128;-63
2022/03/05 12:23:10;;;;;;;3.45;1.90;;;18.10;24.30;20.50;93738.00;;;;10300648;28;47956;-63
2022/03/05 12:28:21;;;;;;;3.72;2.08;;;18.10;24.20;20.50;93731.00;;;;10317522;28;45345;-63
2022/03/05 12:33:22;;;;;;;2.58;1.75;;;18.10;24.00;20.50;93739.00;;;;10317380;28;45317;-64
2022/03/05 12:38:23;;;;;;;3.05;1.75;;;18.00;24.00;20.50;93734.00;;;;10317417;28;45491;-63
2022/03/05 12:43:24;;;;;;;3.55;1.70;;;18.00;24.10;20.50;93690.00;;;;10317238;28;45282;-64
2022/03/05 12:48:24;;;;;;;3.53;2.00;;;18.00;24.10;20.50;93716.00;;;;10316515;28;45351;-63
2022/03/05 12:53:26;;;;;;;5.07;1.85;;;18.10;24.00;20.50;93713.00;;;;10316287;28;46800;-63
2022/03/05 12:58:35;;;;;;;2.95;1.85;;;18.10;24.00;20.50;93716.00;;;;10316814;28;46463;-63
2022/03/05 13:03:38;;;;;;;2.95;1.90;;;18.10;23.90;20.50;93718.00;;;;10316583;28;46432;-63
2022/03/05 13:08:41;;;;;;;3.05;1.80;;;18.10;23.90;20.50;93700.00;;;;10316402;28;45845;-63
2022/03/05 13:13:49;;;;;;;2.92;1.83;;;18.10;23.80;20.50;93689.00;;;;10316676;28;45609;-64
2022/03/05 13:18:58;;;;;;;4.38;1.90;;;18.10;23.70;20.50;93692.00;;;;10316085;28;46674;-63
2022/03/05 13:24:04;;;;;;;2.53;1.70;;;18.10;23.70;20.50;93679.00;;;;10315467;28;48567;-63
2022/03/05 13:29:07;;;;;;;4.78;1.65;;;18.10;23.70;20.50;93680.00;;;;10315433;28;47010;-63
2022/03/05 13:34:19;;;;;;;3.72;1.92;;;18.10;23.60;20.50;93696.00;;;;10315608;28;46277;-63
2022/03/05 13:39:23;;;;;;;3.28;1.90;;;18.10;23.40;20.50;93691.00;;;;10315416;28;46082;-64
2022/03/05 13:44:32;;;;;;;3.70;1.60;;;18.00;22.90;20.50;93695.00;;;;10315571;28;45416;-63
2022/03/05 13:49:34;;;;;;;2.10;1.45;;;18.10;23.20;20.50;93689.00;;;;10315558;28;45260;-63
2022/03/05 13:54:39;;;;;;;2.92;1.70;;;18.10;23.30;20.50;93676.00;;;;10298941;28;47117;-63
2022/03/05 13:59:47;;;;;;;3.77;1.70;;;18.10;23.30;20.50;93670.00;;;;10315000;28;45354;-63
2022/03/05 14:05:09;;;;;;;2.72;1.63;;;18.10;23.40;20.50;93682.00;;;;10314431;28;45198;-64
2022/03/05 14:10:12;;;;;;;4.38;1.80;;;18.10;23.40;20.50;93680.00;;;;10298143;28;47141;-63
2022/03/05 14:15:14;;;;;;;3.25;1.80;;;18.10;23.40;20.50;93681.00;;;;10314722;28;45239;-64
2022/03/05 14:20:19;;;;;;;3.17;1.70;;;18.10;23.50;20.50;93676.00;;;;10314384;28;45571;-63
2022/03/05 14:25:31;;;;;;;2.33;1.67;;;18.10;23.50;20.50;93678.00;;;;10330742;28;46983;-63
2022/03/05 14:30:33;;;;;;;2.45;1.60;;;18.10;23.50;20.40;93678.00;;;;10314537;28;45236;-64
2022/03/05 14:35:33;;;;;;;3.08;1.90;;;18.00;23.40;20.40;93681.00;;;;10315081;28;45203;-63
2022/03/05 14:40:37;;;;;;;2.97;1.88;;;18.00;23.40;20.40;93676.00;;;;10313325;28;46978;-63
2022/03/05 14:45:40;;;;;;;3.30;2.00;;;18.00;23.50;20.40;93679.00;;;;10313302;28;45587;-63
2022/03/05 14:50:43;;;;;;;4.05;2.10;;;18.00;23.40;20.40;93671.00;;;;10313642;28;46357;-64
2022/03/05 14:55:44;;;;;;;2.33;1.60;;;18.00;23.50;20.40;93680.00;;;;10296056;28;47937;-64
2022/03/05 15:00:44;;;;;;;2.72;1.52;;;18.00;23.60;20.40;93683.00;;;;10314374;28;46468;-63
2022/03/05 15:05:45;;;;;;;2.40;1.45;;;18.00;23.70;20.40;93671.00;;;;10312727;28;45577;-65
2022/03/05 15:10:45;;;;;;;2.72;1.83;;;18.00;23.60;20.40;93671.00;;;;10312555;28;47899;-63
2022/03/05 15:15:46;;;;;;;3.13;1.75;;;18.00;23.60;20.40;93664.00;;;;10312279;28;45551;-63
2022/03/05 15:20:47;;;;;;;3.65;1.58;;;18.00;23.50;20.40;93665.00;;;;10312662;28;46762;-64
2022/03/05 15:25:47;;;;;;;3.08;1.65;;;18.00;23.50;20.40;93674.00;;;;10295406;28;47069;-63
2022/03/05 15:30:48;;;;;;;3.00;1.75;;;18.00;23.40;20.40;93664.00;;;;10311822;28;47068;-63
2022/03/05 15:35:49;;;;;;;2.22;1.40;;;17.90;23.40;20.40;93652.00;;;;10311018;28;46131;-63
2022/03/05 15:40:49;;;;;;;2.55;1.55;;;18.00;24.00;20.40;93665.00;;;;10313340;28;45669;-63
2022/03/05 15:45:50;;;;;;;2.40;1.40;;;18.00;23.40;20.40;93658.00;;;;10311815;28;45332;-63
2022/03/05 15:50:51;;;;;;;3.42;1.33;;;18.00;23.70;20.50;93674.00;;;;10312082;28;46986;-63
2022/03/05 15:55:51;;;;;;;1.77;1.30;;;18.10;23.70;20.50;93655.00;;;;10294877;28;46993;-63
2022/03/05 16:00:53;;;;;;;2.45;1.30;;;18.10;23.70;20.50;93655.00;;;;10311756;28;46353;-63
2022/03/05 16:05:55;;;;;;;2.78;1.45;;;18.10;23.70;20.50;93673.00;;;;10311208;28;46445;-63
2022/03/05 16:10:56;;;;;;;2.78;1.48;;;18.10;23.70;20.50;93672.00;;;;10311417;28;45230;-63
2022/03/05 16:15:57;;;;;;;2.28;1.25;;;18.10;23.60;20.60;93681.00;;;;10294257;28;47829;-63
2022/03/05 16:20:58;;;;;;;1.80;1.20;;;18.20;23.70;20.60;93677.00;;;;10298525;28;45511;-63
2022/03/05 16:25:59;;;;;;;2.70;1.60;;;18.20;23.60;20.60;93674.00;;;;10287622;28;47139;-64
2022/03/05 16:30:59;;;;;;;3.67;1.60;;;18.20;23.60;20.60;93658.00;;;;10290568;28;46995;-63
2022/03/05 16:36:00;;;;;;;2.72;1.63;;;18.20;23.60;20.60;93669.00;;;;10297808;28;46496;-63
2022/03/05 16:41:01;;;;;;;2.20;1.60;;;18.10;23.60;20.60;93673.00;;;;10305954;28;45367;-63
2022/03/05 16:46:03;;;;;;;3.75;1.60;;;18.10;23.60;20.60;93683.00;;;;10290294;28;45288;-63
2022/03/05 16:51:04;;;;;;;2.60;1.52;;;18.10;23.60;20.50;93664.00;;;;10287979;28;45295;-63
2022/03/05 16:56:06;;;;;;;3.40;1.55;;;18.10;23.60;20.50;93684.00;;;;10279053;28;45482;-63
2022/03/05 17:01:09;;;;;;;1.92;1.38;;;18.10;23.60;20.50;93682.00;;;;10316825;28;45431;-63
2022/03/05 17:06:09;;;;;;;2.83;1.58;;;18.10;23.70;20.50;93685.00;;;;10316099;28;45197;-64
2022/03/05 17:11:10;;;;;;;2.78;1.60;;;18.10;23.60;20.50;93682.00;;;;10300179;28;47472;-63
2022/03/05 17:16:11;;;;;;;2.40;1.42;;;18.10;23.70;20.50;93682.00;;;;10315629;28;46548;-63
2022/03/05 17:21:12;;;;;;;3.83;1.65;;;18.10;23.70;20.50;93703.00;;;;10311522;28;45359;-65
2022/03/05 17:26:13;;;;;;;2.72;1.55;;;18.10;23.70;20.50;93715.00;;;;10315517;28;45179;-64
2022/03/05 17:31:13;;;;;;;2.45;1.73;;;18.00;23.60;20.50;93721.00;;;;10315754;28;45557;-63
2022/03/05 17:36:14;;;;;;;3.38;2.10;;;18.00;23.70;20.50;93717.00;;;;10298498;28;47174;-63
2022/03/05 17:41:15;;;;;;;2.55;1.63;;;18.10;23.70;20.50;93721.00;;;;10315979;28;45199;-63
2022/03/05 17:46:15;;;;;;;3.15;1.83;;;18.10;23.70;20.50;93713.00;;;;10312676;28;45521;-64
2022/03/05 17:51:16;;;;;;;2.63;1.90;;;18.10;23.60;20.50;93738.00;;;;10276398;28;46044;-63
2022/03/05 17:56:17;;;;;;;3.72;1.80;;;18.00;23.60;20.50;93728.00;;;;10275215;28;45440;-63
2022/03/05 18:01:20;;;;;;;2.38;1.52;;;18.10;23.60;20.50;93735.00;;;;10273034;28;45458;-63
2022/03/05 18:06:21;;;;;;;2.97;1.80;;;18.10;23.60;20.50;93723.00;;;;10269927;28;48343;-63
2022/03/05 18:11:22;;;;;;;2.55;1.70;;;18.10;23.60;20.50;93748.00;;;;10289532;28;45609;-63
2022/03/05 18:16:22;;;;;;;2.92;1.88;;;18.00;23.60;20.50;93745.00;;;;10272605;28;47340;-63
2022/03/05 18:21:23;;;;;;;3.58;1.85;;;18.00;23.60;20.50;93751.00;;;;10275462;28;45117;-63
2022/03/05 18:26:24;;;;;;;3.20;1.80;;;18.00;23.50;20.50;93742.00;;;;10290929;28;45483;-63
2022/03/05 18:31:25;;;;;;;2.33;1.60;;;18.00;23.50;20.50;93754.00;;;;10273149;28;45381;-63
2022/03/05 18:36:26;;;;;;;2.80;1.95;;;18.10;23.60;20.50;93760.00;;;;10276662;28;45233;-63
2022/03/05 18:41:27;;;;;;;2.42;1.60;;;18.00;23.60;20.50;93754.00;;;;10289865;28;45435;-63
2022/03/05 18:46:29;;;;;;;3.00;1.80;;;18.10;23.60;20.50;93758.00;;;;10288288;28;46465;-64
2022/03/05 18:51:32;;;;;;;2.05;1.77;;;18.00;23.50;20.50;93772.00;;;;10274482;28;45260;-63
2022/03/05 18:56:33;;;;;;;2.03;1.48;;;18.10;23.60;20.50;93769.00;;;;10308580;28;45362;-63
2022/03/05 19:01:34;;;;;;;3.10;2.10;;;18.00;23.60;20.50;93769.00;;;;10314321;28;45323;-64
2022/03/05 19:06:35;;;;;;;3.15;1.98;;;18.00;23.50;20.50;93770.00;;;;10269313;28;45500;-63
2022/03/05 19:11:36;;;;;;;2.75;1.90;;;18.00;23.50;20.50;93765.00;;;;10247817;28;45626;-63
2022/03/05 19:16:37;;;;;;;2.42;1.75;;;18.00;23.60;20.50;93767.00;;;;10231118;28;48011;-63
2022/03/05 19:21:38;;;;;;;2.60;1.70;;;18.00;23.60;20.50;93771.00;;;;10233211;28;45536;-63
2022/03/05 19:26:39;;;;;;;3.17;1.90;;;18.00;23.50;20.50;93760.00;;;;10232593;28;46926;-63
2022/03/05 19:31:39;;;;;;;3.08;1.83;;;18.10;23.60;20.50;93779.00;;;;10247399;28;45281;-63
2022/03/05 19:36:40;;;;;;;2.97;2.00;;;18.00;23.60;20.50;93773.00;;;;10326395;23;45211;-59
2022/03/05 19:41:41;;;;;;;2.92;2.05;;;18.10;23.60;20.50;93772.00;;;;10352961;28;48067;-58
2022/03/05 19:46:42;;;;;;;2.10;1.52;;;18.00;23.60;20.50;93768.00;;;;10353795;28;45382;-60
2022/03/05 19:51:43;;;;;;;3.08;1.85;;;18.10;23.60;20.50;93777.00;;;;10369328;28;45306;-58
2022/03/05 19:56:44;;;;;;;4.05;2.00;;;18.00;23.60;20.50;93785.00;;;;10350662;28;47876;-62
2022/03/05 20:01:47;;;;;;;2.85;2.10;;;18.00;23.60;20.50;93767.00;;;;10353692;28;45438;-59
2022/03/05 20:06:48;;;;;;;2.70;1.90;;;18.10;23.60;20.50;93792.00;;;;10353206;28;46084;-60
2022/03/05 20:11:49;;;;;;;2.63;1.77;;;18.00;23.60;20.50;93780.00;;;;10353631;28;45180;-61
2022/03/05 20:16:50;;;;;;;4.00;1.98;;;18.00;23.60;20.50;93779.00;;;;10352753;28;46260;-59
2022/03/05 20:21:50;;;;;;;3.53;2.00;;;18.00;23.60;20.50;93785.00;;;;10371451;28;45348;-60
2022/03/05 20:26:51;;;;;;;3.75;2.10;;;18.10;23.60;20.50;93795.00;;;;10374364;28;45287;-60
2022/03/05 20:31:52;;;;;;;2.60;1.58;;;18.10;23.60;20.50;93806.00;;;;10360118;28;45239;-60
2022/03/05 20:36:53;;;;;;;2.72;1.90;;;18.10;23.60;20.50;93802.00;;;;10357575;28;46591;-59
2022/03/05 20:41:54;;;;;;;3.10;1.77;;;18.10;23.70;20.50;93789.00;;;;10375136;28;46135;-59
2022/03/05 20:46:55;;;;;;;3.53;1.85;;;18.10;23.70;20.50;93805.00;;;;10373979;28;45341;-59
2022/03/05 20:51:55;;;;;;;2.85;2.00;;;18.10;23.70;20.50;93800.00;;;;10373689;28;45288;-59
2022/03/05 20:56:56;;;;;;;3.20;1.80;;;18.10;23.70;20.50;93807.00;;;;10373898;28;45520;-60
2022/03/05 21:01:57;;;;;;;2.78;1.77;;;18.10;23.70;20.50;93805.00;;;;10373674;28;45299;-60
2022/03/05 21:06:58;;;;;;;2.13;1.63;;;18.10;23.70;20.50;93798.00;;;;10356756;28;47232;-60
2022/03/05 21:11:58;;;;;;;2.92;1.80;;;18.10;23.70;20.50;93808.00;;;;10374130;28;45584;-59
2022/03/05 21:17:00;;;;;;;3.03;2.15;;;18.10;23.70;20.50;93791.00;;;;10357074;28;46354;-60
2022/03/05 21:22:01;;;;;;;2.38;1.70;;;18.10;23.70;20.50;93798.00;;;;10373261;28;46904;-61
2022/03/05 21:27:02;;;;;;;2.92;1.75;;;18.10;23.70;20.50;93802.00;;;;10357626;28;45234;-59
2022/03/05 21:32:05;;;;;;;3.40;1.90;;;18.10;23.70;20.50;93817.00;;;;10355807;28;47286;-62
2022/03/05 21:37:06;;;;;;;2.88;1.80;;;18.00;23.70;20.50;93809.00;;;;10371496;28;47378;-60
2022/03/05 21:42:07;;;;;;;2.95;1.80;;;18.00;23.70;20.50;93799.00;;;;10357536;28;45331;-60
2022/03/05 21:47:07;;;;;;;3.28;1.95;;;18.00;23.60;20.50;93789.00;;;;10372273;28;45164;-60
2022/03/05 21:52:08;;;;;;;2.35;1.80;;;18.00;23.60;20.50;93811.00;;;;10372336;28;45278;-60
2022/03/05 21:57:09;;;;;;;2.42;1.73;;;18.00;23.60;20.50;93813.00;;;;10354252;28;46994;-60
2022/03/05 22:02:10;;;;;;;2.30;1.63;;;18.00;23.60;20.50;93814.00;;;;10371887;28;45507;-59
2022/03/05 22:07:11;;;;;;;2.70;1.85;;;18.00;23.60;20.40;93814.00;;;;10354299;28;47509;-60